Time;durP1;ratioP1;P1;durP2;ratioP2;P2;SDS_P1;SDS_P2;PMS_P1;PMS_P2;Temp;Humidity;BMP_temperature;BMP_pressure;BME280_temperature;BME280_humidity;BME280_pressure;Samples;Min_cycle;Max_cycle;Signal;HPM_P1;HPM_P2
2023/09/12 00:00:50;;;;;;;;;8.00;7.00;;;;;22.18;95.69;101126.69;5098653;27;50867;-73
2023/09/12 00:03:20;;;;;;;;;7.00;7.00;;;;;22.18;95.78;101135.66;5100091;27;45467;-74
2023/09/12 00:05:56;;;;;;;;;7.67;7.67;;;;;22.16;95.25;101145.69;5096799;27;45505;-73
2023/09/12 00:08:23;;;;;;;;;9.00;8.00;;;;;22.14;96.95;101146.81;5109311;27;45404;-76
2023/09/12 00:11:12;;;;;;;;;7.67;6.00;;;;;22.12;96.69;101149.66;5103124;27;45463;-73
2023/09/12 00:13:39;;;;;;;;;6.00;6.00;;;;;22.06;96.88;101147.50;5104531;27;45515;-73
2023/09/12 00:16:05;;;;;;;;;8.00;6.00;;;;;22.10;97.47;101146.25;5117463;27;45578;-73
2023/09/12 00:18:31;;;;;;;;;8.00;6.67;;;;;22.05;98.19;101132.34;5104828;27;45345;-73
2023/09/12 00:20:56;;;;;;;;;7.33;7.33;;;;;22.08;98.52;101142.84;5112064;27;45437;-74
2023/09/12 00:23:23;;;;;;;;;8.00;8.00;;;;;22.09;99.95;101140.97;5114299;27;45397;-73
2023/09/12 00:25:50;;;;;;;;;6.67;6.67;;;;;22.05;98.79;101151.22;5110721;27;45381;-74
2023/09/12 00:28:15;;;;;;;;;11.33;7.67;;;;;22.00;100.00;101141.81;5109770;27;45310;-73
2023/09/12 00:30:41;;;;;;;;;10.00;10.00;;;;;22.00;99.10;101142.66;5102760;27;47653;-73
2023/09/12 00:33:06;;;;;;;;;8.00;7.67;;;;;21.97;100.00;101145.63;5112193;27;56504;-76
2023/09/12 00:35:31;;;;;;;;;11.67;9.33;;;;;21.94;99.81;101148.63;5106070;27;45385;-73
2023/09/12 00:37:57;;;;;;;;;7.00;7.00;;;;;21.90;100.00;101141.78;5113257;27;50789;-73
2023/09/12 00:40:22;;;;;;;;;6.00;6.00;;;;;21.88;100.00;101145.56;5113445;27;49869;-74
2023/09/12 00:42:47;;;;;;;;;8.33;7.67;;;;;21.91;100.00;101158.81;5109309;27;45512;-73
2023/09/12 00:45:12;;;;;;;;;8.00;8.00;;;;;21.69;100.00;101114.06;5116703;27;50514;-73
2023/09/12 00:47:38;;;;;;;;;9.00;8.33;;;;;21.88;100.00;101150.97;5112487;27;47370;-74
2023/09/12 00:50:05;;;;;;;;;8.00;7.00;;;;;21.85;100.00;101145.84;5108057;27;45562;-73
2023/09/12 00:52:35;;;;;;;;;10.00;10.00;;;;;21.79;100.00;101147.25;5102647;27;45348;-74
2023/09/12 00:55:00;;;;;;;;;8.67;8.00;;;;;21.72;100.00;101138.88;5128899;27;45563;-73
2023/09/12 00:57:26;;;;;;;;;11.67;10.00;;;;;21.65;100.00;101137.69;5103349;27;46500;-73
2023/09/12 00:59:53;;;;;;;;;9.67;9.67;;;;;21.66;100.00;101135.88;5102663;27;45313;-73
2023/09/12 01:02:22;;;;;;;;;10.00;8.33;;;;;21.60;100.00;101131.00;5109723;27;45395;-74
2023/09/12 01:04:48;;;;;;;;;11.00;9.00;;;;;21.54;100.00;101128.84;5110274;27;45339;-74
2023/09/12 01:07:14;;;;;;;;;9.00;9.00;;;;;21.62;100.00;101137.97;5107473;27;45402;-74
2023/09/12 01:09:40;;;;;;;;;9.00;9.00;;;;;21.58;100.00;101143.75;5109971;27;45945;-73
2023/09/12 01:12:06;;;;;;;;;7.00;7.00;;;;;21.55;100.00;101136.81;5102115;27;45486;-73
2023/09/12 01:14:31;;;;;;;;;12.00;10.67;;;;;21.55;100.00;101136.81;5114325;27;45531;-73
2023/09/12 01:16:58;;;;;;;;;7.67;6.33;;;;;21.57;100.00;101150.97;5115847;27;47193;-73
2023/09/12 01:19:24;;;;;;;;;9.67;9.00;;;;;21.52;100.00;101131.69;5116617;27;45390;-73
2023/09/12 01:22:15;;;;;;;;;8.67;8.00;;;;;21.52;100.00;101126.31;5106313;27;45699;-73
2023/09/12 01:25:05;;;;;;;;;12.00;9.00;;;;;21.51;100.00;101129.97;5109002;27;45293;-73
2023/09/12 01:27:35;;;;;;;;;12.33;9.67;;;;;21.48;100.00;101119.47;5103359;27;45491;-74
2023/09/12 01:30:04;;;;;;;;;8.33;7.67;;;;;21.45;100.00;101110.81;5117578;27;45255;-73
2023/09/12 01:32:31;;;;;;;;;9.33;8.67;;;;;21.45;100.00;101118.91;5110654;27;45243;-73
2023/09/12 01:34:56;;;;;;;;;12.00;11.00;;;;;21.42;100.00;101129.94;5111005;27;45563;-73
2023/09/12 01:37:21;;;;;;;;;11.67;11.00;;;;;21.38;100.00;101131.19;5114595;27;47569;-73
2023/09/12 01:39:47;;;;;;;;;11.67;10.00;;;;;21.20;100.00;101112.94;5103731;27;45357;-74
2023/09/12 01:42:16;;;;;;;;;11.67;11.67;;;;;21.30;100.00;101140.75;5104949;27;45361;-72
2023/09/12 01:44:43;;;;;;;;;11.00;9.00;;;;;21.28;100.00;101145.44;5110819;27;45407;-74
2023/09/12 01:47:11;;;;;;;;;13.67;13.00;;;;;21.24;100.00;101145.81;5117090;27;45422;-74
2023/09/12 01:49:39;;;;;;;;;12.33;12.33;;;;;21.17;100.00;101145.50;5104840;27;45632;-74
2023/09/12 01:52:05;;;;;;;;;12.67;11.67;;;;;21.10;100.00;101132.72;5105297;27;45410;-74
2023/09/12 01:54:32;;;;;;;;;15.33;12.00;;;;;21.09;100.00;101134.56;5126219;27;45544;-74
2023/09/12 01:56:58;;;;;;;;;13.00;11.00;;;;;21.10;100.00;101148.88;5114206;27;45681;-74
2023/09/12 01:59:24;;;;;;;;;11.33;11.33;;;;;20.96;100.00;101114.19;5120316;27;45244;-74
2023/09/12 02:01:50;;;;;;;;;12.00;12.00;;;;;21.05;100.00;101130.38;5102187;27;45463;-73
2023/09/12 02:04:16;;;;;;;;;15.00;13.33;;;;;21.08;100.00;101137.31;5107295;27;45401;-74
2023/09/12 02:06:41;;;;;;;;;14.00;12.67;;;;;21.01;100.00;101133.44;5104678;27;46482;-73
2023/09/12 02:09:06;;;;;;;;;13.33;12.33;;;;;20.96;100.00;101131.19;5107987;27;45380;-74
2023/09/12 02:11:32;;;;;;;;;12.67;11.67;;;;;20.96;100.00;101139.25;5101836;27;45389;-74
2023/09/12 02:13:57;;;;;;;;;14.00;14.00;;;;;21.01;100.00;101152.28;5103256;27;50749;-74
2023/09/12 02:16:22;;;;;;;;;12.67;12.67;;;;;20.90;100.00;101137.09;5110326;27;45406;-74
2023/09/12 02:18:48;;;;;;;;;16.00;14.33;;;;;20.96;100.00;101152.69;5107277;27;45573;-74
2023/09/12 02:21:13;;;;;;;;;13.00;11.67;;;;;20.90;100.00;101145.16;5114797;27;45461;-74
2023/09/12 02:23:38;;;;;;;;;17.67;13.00;;;;;20.83;100.00;101141.25;5112948;27;45313;-74
2023/09/12 02:26:04;;;;;;;;;18.00;15.33;;;;;20.90;100.00;101147.84;5103495;27;45468;-74
2023/09/12 02:28:29;;;;;;;;;13.67;12.00;;;;;20.89;100.00;101145.25;5106172;27;46686;-74
2023/09/12 02:30:54;;;;;;;;;15.33;10.67;;;;;20.85;100.00;101149.19;5116097;27;45769;-74
2023/09/12 02:33:20;;;;;;;;;15.00;14.33;;;;;20.83;100.00;101141.25;5100417;27;45293;-74
2023/09/12 02:35:45;;;;;;;;;13.33;12.33;;;;;20.84;100.00;101136.75;5103724;27;45401;-75
2023/09/12 02:38:10;;;;;;;;;16.00;16.00;;;;;20.77;100.00;101126.53;5104304;27;45388;-74
2023/09/12 02:40:36;;;;;;;;;15.67;14.00;;;;;20.83;100.00;101129.66;5112109;27;49029;-74
2023/09/12 02:43:01;;;;;;;;;20.00;18.00;;;;;20.85;100.00;101147.34;5117505;27;45380;-74
2023/09/12 02:45:26;;;;;;;;;19.33;15.67;;;;;20.81;100.00;101140.53;5115487;27;47002;-74
2023/09/12 02:47:52;;;;;;;;;18.00;18.00;;;;;20.84;100.00;101140.28;5104599;27;45438;-74
2023/09/12 02:50:17;;;;;;;;;17.00;16.00;;;;;20.84;100.00;101151.06;5106623;27;45535;-74
2023/09/12 02:52:42;;;;;;;;;16.00;15.00;;;;;20.85;100.00;101143.81;5110780;27;52551;-74
2023/09/12 02:55:08;;;;;;;;;15.00;14.00;;;;;20.84;100.00;101139.44;5107099;27;48335;-74
2023/09/12 02:57:33;;;;;;;;;14.00;14.00;;;;;20.82;100.00;101131.47;5107019;27;45283;-74
2023/09/12 02:59:58;;;;;;;;;14.00;13.33;;;;;20.86;100.00;101130.25;5103200;27;45445;-74
2023/09/12 03:02:24;;;;;;;;;13.67;13.67;;;;;20.83;100.00;101122.44;5111014;27;52729;-74
2023/09/12 03:04:49;;;;;;;;;17.67;14.67;;;;;20.73;100.00;101111.63;5101897;27;50203;-75
2023/09/12 03:07:15;;;;;;;;;11.33;11.33;;;;;20.73;100.00;101118.81;5099616;27;45437;-74
2023/09/12 03:09:40;;;;;;;;;16.00;14.67;;;;;20.71;100.00;101126.19;5111609;27;45588;-74
2023/09/12 03:12:05;;;;;;;;;12.33;12.33;;;;;20.68;100.00;101115.69;5109397;27;45292;-74
2023/09/12 03:14:31;;;;;;;;;13.00;10.00;;;;;20.68;100.00;101118.38;5109016;27;45364;-74
2023/09/12 03:16:56;;;;;;;;;13.67;13.67;;;;;20.69;100.00;101123.59;5109049;27;45299;-74
2023/09/12 03:19:22;;;;;;;;;13.67;12.33;;;;;20.62;100.00;101117.03;5117187;27;45452;-74
2023/09/12 03:21:47;;;;;;;;;15.00;13.67;;;;;20.65;100.00;101123.97;5106393;27;45600;-74
2023/09/12 03:24:12;;;;;;;;;17.00;13.67;;;;;20.70;100.00;101135.22;5113915;27;45508;-74
2023/09/12 03:26:38;;;;;;;;;13.00;12.00;;;;;20.68;100.00;101145.25;5100904;27;45399;-73
2023/09/12 03:29:04;;;;;;;;;15.33;13.33;;;;;20.69;100.00;101146.94;5099909;27;45365;-73
2023/09/12 03:31:29;;;;;;;;;18.67;14.00;;;;;20.69;100.00;101137.06;5100439;27;45385;-74
2023/09/12 03:33:55;;;;;;;;;15.00;13.33;;;;;20.67;100.00;101140.84;5106708;27;45420;-74
2023/09/12 03:36:20;;;;;;;;;16.33;14.00;;;;;20.66;100.00;101147.19;5103693;27;45555;-73
2023/09/12 03:38:45;;;;;;;;;15.33;12.00;;;;;20.63;100.00;101147.47;5107184;27;45562;-74
2023/09/12 03:41:11;;;;;;;;;16.67;14.33;;;;;20.66;100.00;101157.94;5099835;27;45291;-74
2023/09/12 03:43:36;;;;;;;;;11.00;11.00;;;;;20.64;100.00;101151.88;5107219;27;46225;-73
2023/09/12 03:46:03;;;;;;;;;13.33;12.33;;;;;20.69;100.00;101150.50;5101731;27;45666;-74
2023/09/12 03:48:30;;;;;;;;;18.67;13.67;;;;;20.62;100.00;101145.75;5104902;27;45270;-74
2023/09/12 03:50:56;;;;;;;;;14.67;13.00;;;;;20.69;100.00;101155.00;5118021;27;45571;-74
2023/09/12 03:53:21;;;;;;;;;17.00;16.00;;;;;20.58;100.00;101136.25;5116712;27;45582;-74
2023/09/12 03:55:46;;;;;;;;;18.33;13.33;;;;;20.68;100.00;101159.53;5122330;27;45481;-74
2023/09/12 03:58:12;;;;;;;;;20.33;16.33;;;;;20.47;100.00;101128.22;5110024;27;46059;-73
2023/09/12 04:00:37;;;;;;;;;14.00;12.00;;;;;20.57;100.00;101145.28;5126312;27;45291;-74
2023/09/12 04:03:03;;;;;;;;;14.00;14.00;;;;;20.59;100.00;101146.00;5122632;27;45540;-74
2023/09/12 04:05:28;;;;;;;;;14.67;10.33;;;;;20.57;100.00;101156.03;5119710;27;45378;-74
2023/09/12 04:07:53;;;;;;;;;14.33;12.00;;;;;20.57;100.00;101164.09;5116493;27;45276;-73
2023/09/12 04:10:22;;;;;;;;;12.33;12.33;;;;;20.55;100.00;101172.28;5119348;27;45492;-75
2023/09/12 04:12:47;;;;;;;;;16.00;15.33;;;;;20.52;100.00;101155.56;5124064;27;45509;-75
2023/09/12 04:15:13;;;;;;;;;14.00;14.00;;;;;20.55;100.00;101177.66;5115784;27;45391;-74
2023/09/12 04:17:38;;;;;;;;;12.33;12.33;;;;;20.51;100.00;101176.22;5112309;27;45224;-74
2023/09/12 04:20:04;;;;;;;;;11.00;10.00;;;;;20.54;100.00;101178.66;5108760;27;45626;-74
2023/09/12 04:22:30;;;;;;;;;13.00;13.00;;;;;20.50;100.00;101171.81;5109988;27;45288;-74
2023/09/12 04:24:55;;;;;;;;;15.33;13.33;;;;;20.55;100.00;101169.59;5117402;27;45282;-74
2023/09/12 04:27:21;;;;;;;;;9.67;9.67;;;;;20.52;100.00;101163.63;5107642;27;45272;-74
2023/09/12 04:29:46;;;;;;;;;14.00;12.33;;;;;20.51;100.00;101161.94;5108968;27;52473;-73
2023/09/12 04:32:12;;;;;;;;;15.33;15.00;;;;;20.54;100.00;101167.03;5110552;27;46567;-74
2023/09/12 04:34:37;;;;;;;;;13.00;10.33;;;;;20.52;100.00;101169.00;5116599;27;45476;-74
2023/09/12 04:37:03;;;;;;;;;16.33;16.33;;;;;20.50;100.00;101176.34;5115542;27;45670;-73
2023/09/12 04:39:29;;;;;;;;;17.33;14.00;;;;;20.47;100.00;101176.59;5113888;27;45529;-74
2023/09/12 04:41:55;;;;;;;;;16.33;14.00;;;;;20.40;100.00;101160.13;5106173;27;45477;-74
2023/09/12 04:44:20;;;;;;;;;16.00;16.00;;;;;20.43;100.00;101167.94;5107447;27;45421;-74
2023/09/12 04:46:46;;;;;;;;;15.00;14.67;;;;;20.46;100.00;101174.88;5123577;27;45392;-74
2023/09/12 04:49:11;;;;;;;;;16.00;12.67;;;;;20.38;100.00;101171.97;5118964;27;45325;-74
2023/09/12 04:51:37;;;;;;;;;12.00;7.33;;;;;20.42;100.00;101178.81;5104017;27;47142;-74
2023/09/12 04:54:02;;;;;;;;;18.00;13.67;;;;;20.42;100.00;101185.00;5105067;27;45298;-74
2023/09/12 04:56:27;;;;;;;;;15.00;12.67;;;;;20.43;100.00;101180.50;5121902;27;45318;-74
2023/09/12 04:58:53;;;;;;;;;8.33;8.33;;;;;20.40;100.00;101178.94;5114719;27;56580;-74
2023/09/12 05:01:19;;;;;;;;;14.67;12.67;;;;;20.41;100.00;101179.78;5114839;27;45533;-74
2023/09/12 05:03:44;;;;;;;;;13.33;12.00;;;;;20.47;100.00;101196.25;5105257;27;45516;-74
2023/09/12 05:06:10;;;;;;;;;15.67;12.67;;;;;20.42;100.00;101184.19;5109981;27;45356;-74
2023/09/12 05:08:35;;;;;;;;;16.67;16.33;;;;;20.42;100.00;101181.50;5100247;27;45431;-74
2023/09/12 05:11:02;;;;;;;;;14.00;13.33;;;;;20.37;100.00;101176.50;5117582;27;45330;-74
2023/09/12 05:13:27;;;;;;;;;19.00;17.00;;;;;20.35;100.00;101177.59;5111525;27;45675;-73
2023/09/12 05:15:53;;;;;;;;;17.67;12.33;;;;;20.40;100.00;101178.06;5111517;27;45364;-73
2023/09/12 05:18:18;;;;;;;;;17.33;14.33;;;;;20.42;100.00;101181.50;5111085;27;45402;-74
2023/09/12 05:20:43;;;;;;;;;13.33;13.00;;;;;20.33;100.00;101175.03;5102013;27;52519;-73
2023/09/12 05:23:09;;;;;;;;;15.00;15.00;;;;;20.30;100.00;101182.47;5104517;27;45519;-72
2023/09/12 05:25:34;;;;;;;;;17.00;14.33;;;;;20.37;100.00;101205.19;5102615;27;45675;-72
2023/09/12 05:27:59;;;;;;;;;12.67;12.33;;;;;20.26;100.00;101176.47;5114525;27;45640;-72
2023/09/12 05:30:25;;;;;;;;;17.67;15.67;;;;;20.31;100.00;101194.94;5112069;27;45388;-73
2023/09/12 05:32:50;;;;;;;;;16.67;14.33;;;;;20.29;100.00;101180.81;5102688;27;51438;-72
2023/09/12 05:35:15;;;;;;;;;21.00;14.00;;;;;20.41;100.00;101204.81;5104900;27;45309;-72
2023/09/12 05:37:40;;;;;;;;;14.67;14.00;;;;;20.41;100.00;101206.66;5110020;27;45472;-73
2023/09/12 05:40:06;;;;;;;;;18.67;16.33;;;;;20.39;100.00;101187.09;5103209;27;45433;-73
2023/09/12 05:42:32;;;;;;;;;16.67;14.00;;;;;20.41;100.00;101193.22;5106146;27;45304;-73
2023/09/12 05:44:57;;;;;;;;;18.33;12.33;;;;;20.36;100.00;101181.97;5110475;27;45459;-72
2023/09/12 05:47:22;;;;;;;;;13.00;13.00;;;;;20.44;100.00;101195.66;5118734;27;45533;-72
2023/09/12 05:49:48;;;;;;;;;15.67;14.00;;;;;20.50;100.00;101193.31;5117908;27;47028;-73
2023/09/12 05:52:14;;;;;;;;;13.67;11.00;;;;;20.52;100.00;101180.59;5109791;27;45354;-73
2023/09/12 05:54:40;;;;;;;;;15.00;10.67;;;;;20.53;100.00;101190.38;5110798;27;45367;-73
2023/09/12 05:57:06;;;;;;;;;14.33;14.33;;;;;20.58;100.00;101198.06;5108199;27;45580;-74
2023/09/12 05:59:32;;;;;;;;;16.33;14.67;;;;;20.65;100.00;101202.78;5114725;27;48351;-73
2023/09/12 06:01:57;;;;;;;;;14.67;14.00;;;;;20.68;100.00;101199.84;5106077;27;45463;-73
2023/09/12 06:04:22;;;;;;;;;17.00;16.67;;;;;20.75;100.00;101210.94;5113561;27;45470;-73
2023/09/12 06:06:48;;;;;;;;;15.33;15.00;;;;;20.77;100.00;101219.75;5113792;27;45686;-73
2023/09/12 06:09:13;;;;;;;;;20.33;16.67;;;;;20.63;100.00;101194.00;5117492;27;46264;-73
2023/09/12 06:11:38;;;;;;;;;16.67;14.67;;;;;20.64;100.00;101203.78;5120296;27;45393;-73
2023/09/12 06:14:04;;;;;;;;;19.67;16.67;;;;;20.57;100.00;101209.78;5107674;27;45389;-73
2023/09/12 06:16:29;;;;;;;;;19.00;16.67;;;;;20.67;100.00;101229.56;5111250;27;45415;-72
2023/09/12 06:18:55;;;;;;;;;18.67;17.00;;;;;20.66;100.00;101233.22;5106917;27;45644;-72
2023/09/12 06:21:21;;;;;;;;;18.33;16.00;;;;;20.71;100.00;101229.16;5110897;27;45383;-72
2023/09/12 06:24:09;;;;;;;;;21.00;19.00;;;;;20.72;100.00;101214.75;5118870;27;45524;-72
2023/09/12 06:26:35;;;;;;;;;20.67;18.33;;;;;20.72;100.00;101217.44;5104766;27;45386;-73
2023/09/12 06:29:00;;;;;;;;;22.00;19.00;;;;;20.64;100.00;101209.16;5114316;27;45420;-72
2023/09/12 06:31:25;;;;;;;;;15.67;15.67;;;;;20.71;100.00;101220.28;5108106;27;45841;-73
2023/09/12 06:33:51;;;;;;;;;20.67;17.00;;;;;20.60;100.00;101196.09;5112775;27;45752;-72
2023/09/12 06:36:16;;;;;;;;;21.00;17.67;;;;;20.68;100.00;101212.47;5109679;27;45433;-73
2023/09/12 06:38:41;;;;;;;;;23.67;20.67;;;;;20.65;100.00;101210.00;5111840;27;45497;-73
2023/09/12 06:41:06;;;;;;;;;16.33;14.33;;;;;20.65;100.00;101204.63;5111452;27;45511;-74
2023/09/12 06:43:32;;;;;;;;;20.33;17.33;;;;;20.65;100.00;101201.94;5109351;27;45541;-74
2023/09/12 06:45:57;;;;;;;;;16.67;16.67;;;;;20.60;100.00;101202.34;5105332;27;45378;-73
2023/09/12 06:48:22;;;;;;;;;19.67;17.00;;;;;20.69;100.00;101211.47;5111352;27;47826;-73
2023/09/12 06:50:48;;;;;;;;;11.67;11.00;;;;;20.75;100.00;101219.00;5107628;27;50932;-74
2023/09/12 06:53:13;;;;;;;;;17.67;16.67;;;;;20.88;100.00;101222.38;5113377;27;45501;-74
2023/09/12 06:55:38;;;;;;;;;15.67;14.67;;;;;20.85;100.00;101214.56;5108502;27;48136;-74
2023/09/12 06:58:04;;;;;;;;;19.67;15.00;;;;;20.84;100.00;101212.03;5108976;27;46878;-73
2023/09/12 07:00:29;;;;;;;;;19.33;17.33;;;;;20.72;100.00;101216.56;5100113;27;47058;-73
2023/09/12 07:02:54;;;;;;;;;15.33;13.33;;;;;20.73;100.00;101218.28;5119776;27;45514;-74
2023/09/12 07:05:20;;;;;;;;;17.33;14.33;;;;;20.70;100.00;101207.78;5106573;27;45547;-74
2023/09/12 07:07:45;;;;;;;;;20.33;16.33;;;;;20.78;100.00;101233.06;5108240;27;45592;-73
2023/09/12 07:10:11;;;;;;;;;17.33;15.00;;;;;20.71;100.00;101206.81;5099048;27;45376;-74
2023/09/12 07:12:37;;;;;;;;;18.00;17.00;;;;;20.73;100.00;101216.47;5106338;27;45320;-73
2023/09/12 07:15:02;;;;;;;;;14.00;14.00;;;;;20.83;100.00;101226.44;5110459;27;45386;-74
2023/09/12 07:17:28;;;;;;;;;18.33;16.33;;;;;20.92;100.00;101241.81;5100903;27;45791;-73
2023/09/12 07:19:53;;;;;;;;;17.67;16.67;;;;;20.93;100.00;101236.31;5100613;27;45384;-74
2023/09/12 07:22:19;;;;;;;;;18.00;17.33;;;;;20.93;100.00;101239.00;5102411;27;45591;-74
2023/09/12 07:24:44;;;;;;;;;19.00;18.00;;;;;20.93;100.00;101236.31;5110805;27;45324;-74
2023/09/12 07:27:09;;;;;;;;;15.33;14.67;;;;;21.00;100.00;101240.19;5115289;27;47675;-74
2023/09/12 07:29:35;;;;;;;;;19.00;16.67;;;;;21.00;100.00;101236.66;5100187;27;45225;-74
2023/09/12 07:32:00;;;;;;;;;16.67;16.67;;;;;20.94;100.00;101238.00;5113451;27;45317;-74
2023/09/12 07:34:25;;;;;;;;;20.67;17.00;;;;;20.87;100.00;101228.75;5099477;27;45237;-74
2023/09/12 07:36:51;;;;;;;;;14.33;14.33;;;;;20.95;100.00;101241.56;5098793;27;45353;-73
2023/09/12 07:39:17;;;;;;;;;17.33;15.33;;;;;20.99;100.00;101243.00;5100288;27;45539;-74
2023/09/12 07:41:42;;;;;;;;;18.33;15.33;;;;;20.89;100.00;101220.56;5102677;27;45399;-74
2023/09/12 07:44:10;;;;;;;;;18.33;14.67;;;;;21.04;100.00;101240.81;5107477;27;45426;-74
2023/09/12 07:46:36;;;;;;;;;13.67;13.67;;;;;21.05;100.00;101239.81;5109009;27;45546;-74
2023/09/12 07:49:01;;;;;;;;;14.33;14.33;;;;;21.08;100.00;101236.84;5111580;27;45355;-74
2023/09/12 07:51:26;;;;;;;;;13.67;13.67;;;;;21.07;100.00;101241.38;5104228;27;45730;-74
2023/09/12 07:53:52;;;;;;;;;18.67;14.33;;;;;21.13;100.00;101237.38;5106575;27;45536;-74
2023/09/12 07:56:17;;;;;;;;;18.67;16.00;;;;;21.10;100.00;101230.41;5104537;27;45317;-74
2023/09/12 07:58:42;;;;;;;;;16.00;14.67;;;;;21.28;100.00;101247.69;5108788;27;53212;-74
2023/09/12 08:01:09;;;;;;;;;17.33;16.00;;;;;21.35;100.00;101241.78;5113190;27;45245;-74
2023/09/12 08:03:36;;;;;;;;;13.00;12.67;;;;;21.37;100.00;101235.25;5109118;27;45362;-74
2023/09/12 08:06:02;;;;;;;;;13.00;12.00;;;;;21.48;100.00;101234.34;5103532;27;46494;-74
2023/09/12 08:08:28;;;;;;;;;11.33;11.33;;;;;21.50;100.00;101243.16;5108862;27;45500;-74
2023/09/12 08:10:53;;;;;;;;;11.67;10.67;;;;;21.50;100.00;101240.47;5105647;27;45582;-74
2023/09/12 08:13:18;;;;;;;;;13.67;13.67;;;;;21.51;100.00;101242.16;5099978;27;45391;-74
2023/09/12 08:15:44;;;;;;;;;15.00;12.33;;;;;21.50;100.00;101238.63;5103431;27;52459;-74
2023/09/12 08:18:10;;;;;;;;;12.33;11.33;;;;;21.52;100.00;101241.19;5107679;27;47836;-74
2023/09/12 08:20:35;;;;;;;;;14.00;11.00;;;;;21.43;100.00;101242.84;5116435;27;45474;-74
2023/09/12 08:23:01;;;;;;;;;12.00;11.00;;;;;21.34;100.00;101227.47;5110167;27;45706;-74
2023/09/12 08:25:27;;;;;;;;;9.67;9.67;;;;;21.44;100.00;101257.13;5118939;27;47104;-74
2023/09/12 08:27:52;;;;;;;;;13.00;9.00;;;;;21.38;100.00;101260.34;5117229;27;45266;-73
2023/09/12 08:30:17;;;;;;;;;11.33;11.33;;;;;21.30;100.00;101250.25;5101784;27;45656;-74
2023/09/12 08:32:45;;;;;;;;;14.33;13.00;;;;;21.37;100.00;101258.66;5112391;27;45406;-74
2023/09/12 08:35:12;;;;;;;;;13.67;11.00;;;;;21.31;100.00;101251.94;5108472;27;47048;-74
2023/09/12 08:37:39;;;;;;;;;17.00;15.00;;;;;21.34;100.00;101259.75;5102415;27;45716;-75
2023/09/12 08:40:08;;;;;;;;;16.33;14.00;;;;;21.38;100.00;101258.50;5101956;27;45657;-74
2023/09/12 08:42:40;;;;;;;;;17.00;12.33;;;;;21.33;100.00;101246.44;5102907;27;45457;-74
2023/09/12 08:45:11;;;;;;;;;19.67;11.00;;;;;21.34;100.00;101243.59;5117738;27;47639;-73
2023/09/12 08:47:40;;;;;;;;;12.67;11.33;;;;;21.40;100.00;101269.16;5116521;27;45421;-74
2023/09/12 08:50:06;;;;;;;;;13.33;11.67;;;;;21.38;100.00;101246.88;5117971;27;45350;-74
2023/09/12 08:52:32;;;;;;;;;17.33;13.67;;;;;21.42;100.00;101251.03;5114230;27;45331;-75
2023/09/12 08:54:57;;;;;;;;;17.00;13.33;;;;;21.45;100.00;101253.47;5108587;27;45354;-74
2023/09/12 08:57:24;;;;;;;;;14.33;13.00;;;;;21.47;100.00;101248.78;5109308;27;45718;-74
2023/09/12 08:59:50;;;;;;;;;8.67;8.67;;;;;21.53;100.00;101257.19;5117414;27;45524;-75
2023/09/12 09:02:16;;;;;;;;;13.33;12.67;;;;;21.60;100.00;101257.53;5108185;27;45535;-74
2023/09/12 09:04:45;;;;;;;;;15.67;14.00;;;;;21.58;100.00;101256.81;5115896;27;47397;-74
2023/09/12 09:07:13;;;;;;;;;12.33;12.33;;;;;21.50;100.00;101253.94;5112823;27;45331;-74
2023/09/12 09:09:38;;;;;;;;;13.00;12.00;;;;;21.47;100.00;101260.41;5102480;27;45381;-74
2023/09/12 09:12:08;;;;;;;;;14.00;12.00;;;;;21.36;100.00;101256.94;5101970;27;45314;-74
2023/09/12 09:14:34;;;;;;;;;16.67;13.33;;;;;21.32;100.00;101255.50;5104912;27;45429;-74
2023/09/12 09:17:00;;;;;;;;;12.33;11.00;;;;;21.21;100.00;101243.78;5128503;27;45362;-74
2023/09/12 09:19:41;;;;;;;;;12.00;11.00;;;;;21.23;100.00;101251.75;5103532;27;45296;-73
2023/09/12 09:22:07;;;;;;;;;15.33;11.00;;;;;21.22;100.00;101256.28;5109709;27;45490;-74
2023/09/12 09:24:32;;;;;;;;;11.67;10.00;;;;;21.18;100.00;101260.19;5106416;27;46621;-74
2023/09/12 09:27:00;;;;;;;;;10.00;10.00;;;;;21.15;100.00;101256.91;5099588;27;45394;-74
2023/09/12 09:29:28;;;;;;;;;11.33;11.33;;;;;21.00;100.00;101242.03;5115358;27;45331;-74
2023/09/12 09:31:53;;;;;;;;;12.33;11.33;;;;;21.07;100.00;101251.31;5115023;27;46216;-75
2023/09/12 09:34:21;;;;;;;;;17.00;14.33;;;;;21.03;100.00;101249.84;5100866;27;45886;-75
2023/09/12 09:36:49;;;;;;;;;14.67;12.67;;;;;20.92;100.00;101242.66;5109612;27;45517;-75
2023/09/12 09:39:17;;;;;;;;;13.33;11.33;;;;;20.92;100.00;101255.25;5112262;27;45532;-75
2023/09/12 09:41:47;;;;;;;;;12.67;12.00;;;;;20.85;100.00;101252.22;5115553;27;45270;-74
2023/09/12 09:44:13;;;;;;;;;13.00;13.00;;;;;20.73;100.00;101254.09;5108320;27;47309;-75
2023/09/12 09:46:38;;;;;;;;;9.33;9.33;;;;;20.73;100.00;101247.88;5106715;27;45390;-75
2023/09/12 09:49:06;;;;;;;;;9.67;9.67;;;;;20.64;100.00;101243.25;5100510;27;46257;-75
2023/09/12 09:51:31;;;;;;;;;12.67;12.67;;;;;20.58;100.00;101255.34;5111499;27;45536;-75
2023/09/12 09:53:58;;;;;;;;;15.33;11.33;;;;;20.59;100.00;101264.25;5118393;27;47117;-75
2023/09/12 09:56:25;;;;;;;;;14.67;13.67;;;;;20.59;100.00;101278.56;5108591;27;45284;-75
2023/09/12 09:58:54;;;;;;;;;12.00;12.00;;;;;20.58;100.00;101282.22;5101557;27;45295;-75
2023/09/12 10:01:21;;;;;;;;;13.33;11.33;;;;;20.55;100.00;101297.75;5101654;27;45387;-75
2023/09/12 10:03:47;;;;;;;;;14.33;13.33;;;;;20.48;100.00;101313.53;5105351;27;45282;-74
2023/09/12 10:06:16;;;;;;;;;14.33;14.33;;;;;20.49;100.00;101325.09;5101125;27;45535;-74
2023/09/12 10:08:44;;;;;;;;;13.67;13.67;;;;;20.46;100.00;101336.09;5109665;27;45551;-76
2023/09/12 10:11:10;;;;;;;;;16.67;14.33;;;;;20.37;100.00;101335.00;5115725;27;45368;-74
2023/09/12 10:13:40;;;;;;;;;17.00;16.00;;;;;20.27;100.00;101348.31;5116169;27;46165;-74
2023/09/12 10:16:06;;;;;;;;;20.33;20.00;;;;;20.30;100.00;101354.41;5101515;27;45278;-75
2023/09/12 10:18:41;;;;;;;;;21.33;17.33;;;;;20.16;100.00;101336.66;5102284;27;45490;-74
2023/09/12 10:21:17;;;;;;;;;26.00;20.33;;;;;20.16;100.00;101344.72;5107017;27;47288;-74
2023/09/12 10:23:50;;;;;;;;;24.33;18.33;;;;;20.04;100.00;101341.19;5103096;27;47981;-74
2023/09/12 10:26:17;;;;;;;;;22.00;19.67;;;;;20.07;100.00;101337.38;5129064;27;45330;-74
2023/09/12 10:28:43;;;;;;;;;20.00;18.67;;;;;20.01;100.00;101340.56;5105759;27;45652;-73
2023/09/12 10:31:11;;;;;;;;;20.00;17.67;;;;;19.92;100.00;101331.41;5114969;27;45405;-74
2023/09/12 10:33:37;;;;;;;;;21.67;18.00;;;;;19.93;100.00;101321.50;5124882;27;45486;-74
2023/09/12 10:36:08;;;;;;;;;19.00;15.00;;;;;19.90;100.00;101325.28;5121181;27;45483;-74
2023/09/12 10:38:40;;;;;;;;;13.00;10.67;;;;;19.89;100.00;101325.41;5124765;27;45344;-73
2023/09/12 10:41:08;;;;;;;;;15.33;15.33;;;;;19.83;100.00;101304.41;5126733;27;45742;-74
2023/09/12 10:43:35;;;;;;;;;16.00;14.00;;;;;19.92;100.00;101325.19;5126291;27;46182;-74
2023/09/12 10:46:03;;;;;;;;;19.00;16.33;;;;;19.86;100.00;101321.13;5119562;27;44806;-74
2023/09/12 10:48:29;;;;;;;;;17.67;14.33;;;;;19.85;100.00;101313.19;5113587;27;45503;-73
2023/09/12 10:50:58;;;;;;;;;15.67;14.00;;;;;19.81;100.00;101312.56;5110092;27;45242;-73
2023/09/12 10:53:26;;;;;;;;;16.67;14.33;;;;;19.71;100.00;101307.06;5109421;27;47246;-74
2023/09/12 10:56:00;;;;;;;;;14.33;14.33;;;;;19.81;100.00;101317.09;5122042;27;45291;-73
2023/09/12 10:58:25;;;;;;;;;14.67;14.67;;;;;19.79;100.00;101311.00;5121684;27;45312;-74
2023/09/12 11:01:25;;;;;;;;;17.67;16.67;;;;;19.84;100.00;101311.47;5117940;27;45409;-73